Terminal Aerodrome Forecast
Issued by NWS

Home | Current Version | Previous Version | Text Only | Print | Product List | Glossary On
Versions: 1 2 3 4 5 6 7 8 9 10 11 12 13
000
FTUS44 KEPZ 191130
TAFDMN
TAF
KDMN 191130Z 1912/2012 06004KT P6SM SCT080 BKN140
      TEMPO 1914/1918 VRB08G15KT 6SM -SHRA FEW050 BKN080
     FM191800 20006KT P6SM SCT070 SCT130 BKN200
      TEMPO 1918/1922 VRB25G35KT 3SM TSRA SCT060CB BKN100
     FM200200 07005KT P6SM VCTS BKN060CB OVC150=

USA.gov is the U.S. government's official web portal to all federal, state and local government web resources and services.